Runnells, Iowa
Current Conditions -  °F | °C
As of 4:33 PM on Friday 24 Oct 2014 (Local Time) from KDSM Reporting Station
Haze Haze  
Wind Chill: 68°   Ceiling: 25000
Heat Index: 68°   Visibility: 6mi
Dew Point: 61°   Wind: 9mph
Humidity: 78%   Direction: 200°SSW
Pressure: 29.89"   Gusts: NA
Location:  41.51°N, 93.36°W
Report Text: KDSM 242133Z 20008KT 6SM HZ SCT017 BKN250 20/16 A2989 RMK AO2 T02000161
Loading
Personal Weather Stations






























Interactive Weather Map
Tropical Storm Tracking
New forecast layout! Learn more

10-Day Weather Forecast

Advertisements
Track Severe Weather on mobile